Station: Robe Airport

  Atmospheric Gas Attenuation - ITU Rec 676-11   --------------- db/100km ---------------
Date Time Temp RH % AH g/m3 Dew Point Wind Direction Speed kph Gust kph Barometer mB Rainfall Since 9am 24GHz 47GHz 76GHz 122GHz 134GHz 241GHz
15 01:50 7.8 84 6.86 5.2 9 11 1019.6 2.2 16.1 25.0 35.9 93.8 82.7 282.5
15 01:40 7.8 84 6.86 5.2 9 11 1019.6 2.2 16.1 25.0 35.9 93.8 82.7 282.5
15 01:30 7.7 86 6.98 5.5 11 13 1019.5 2.2 16.4 25.2 36.4 95.3 84.4 288.6
15 01:20 7.5 86 6.89 5.4 9 11 1019.6 2.2 16.2 25.1 36.1 94.5 83.4 285.0
15 01:10 7.6 86 6.93 5.5 7 7 1019.6 2.2 16.3 25.2 36.3 94.9 83.8 286.6
15 01:00 7.6 86 6.93 5.5 6 7 1019.5 2.2 16.3 25.2 36.3 94.8 83.8 286.6
15 00:50 7.6 86 6.93 5.5 6 7 1019.4 2.2 16.3 25.2 36.3 94.8 83.8 286.5
15 00:40 7.6 86 6.93 5.5 7 7 1019.3 2.2 16.3 25.2 36.3 94.8 83.8 286.5
15 00:30 7.6 88 7.09 5.7 9 13 1019.3 2.2 16.6 25.4 36.9 96.6 86.0 294.1
15 00:20 7.5 89 7.13 5.8 11 13 1019.4 2.2 16.7 25.5 37.1 97.2 86.7 296.4
15 00:10 7.4 89 7.08 5.7 9 11 1019.5 2.2 16.6 25.5 37.0 96.7 86.1 294.5
15 00:00 7.3 89 7.04 5.6 7 7 1019.4 2.2 16.5 25.4 36.8 96.4 85.7 292.9
14 23:50 7.3 89 7.04 5.6 9 11 1019.6 2.2 16.5 25.4 36.9 96.4 85.7 292.9
14 23:40 7.3 89 7.04 5.6 6 7 1019.6 2.2 16.5 25.4 36.9 96.4 85.7 292.9
14 23:30 7.5 89 7.13 5.8 11 13 1019.7 2.2 16.7 25.5 37.1 97.2 86.7 296.5
14 23:20 7.6 89 7.17 5.9 9 9 1019.7 2.2 16.8 25.6 37.3 97.5 87.1 298.1
14 23:10 7.6 90 7.25 6 9 11 1019.7 2.2 17.0 25.7 37.6 98.4 88.2 301.9
14 23:00 7.6 89 7.17 5.9 9 9 1019.7 2.2 16.8 25.6 37.3 97.5 87.1 298.1
14 22:50 7.7 88 7.14 5.8 9 11 1019.6 2.2 16.7 25.5 37.1 97.0 86.6 296.2
14 22:40 8 88 7.28 6.1 7 9 1019.6 2.2 17.0 25.6 37.5 98.2 88.2 301.8
14 22:30 8.1 88 7.33 6.2 7 9 1019.5 2.2 17.1 25.7 37.7 98.6 88.7 303.7
14 22:20 8.2 88 7.37 6.3 6 7 1019.5 2.2 17.2 25.7 37.8 99.0 89.2 305.3
14 22:10 8.3 88 7.42 6.4 6 7 1019.5 2.2 17.3 25.8 38.0 99.4 89.7 307.3
14 22:00 8.3 88 7.42 6.4 11 15 1019.5 2.2 17.3 25.8 38.0 99.4 89.7 307.3
14 21:50 8.3 88 7.42 6.4 7 9 1019.4 2.2 17.3 25.8 38.0 99.4 89.7 307.3
14 21:40 8.4 88 7.47 6.5 7 9 1019.5 2.2 17.4 25.8 38.1 99.8 90.3 309.3
14 21:30 8.3 88 7.42 6.4 9 9 1019.4 2.2 17.3 25.8 38.0 99.4 89.7 307.3
14 21:20 8.3 87 7.34 6.2 9 11 1019.3 2.2 17.1 25.6 37.6 98.5 88.6 303.4
14 21:10 8.3 87 7.34 6.2 7 9 1019.3 2.2 17.1 25.6 37.6 98.5 88.6 303.4
14 21:00 8.3 88 7.42 6.4 9 9 1019.3 2.2 17.3 25.8 37.9 99.4 89.7 307.2
14 20:50 8.3 89 7.5 6.6 9 11 1019.2 2.2 17.5 25.9 38.3 100.2 90.8 311.0
14 20:40 8.2 89 7.46 6.5 13 15 1019 2.2 17.4 25.9 38.1 99.9 90.3 309.5
14 20:30 8.3 88 7.42 6.4 9 11 1019.1 2.2 17.3 25.8 37.9 99.3 89.7 307.2
14 20:20 8.3 88 7.42 6.4 9 11 1019 2.2 17.3 25.8 37.9 99.3 89.7 307.2
14 20:10 8.4 88 7.47 6.5 9 9 1018.9 2.2 17.4 25.8 38.1 99.7 90.2 309.1
14 20:00 8.6 88 7.56 6.7 7 11 1019 2.2 17.6 25.9 38.4 100.5 91.2 312.7
14 19:50 8.7 87 7.53 6.6 7 9 1019 2.2 17.5 25.8 38.2 100.0 90.7 310.8
14 19:40 8.8 87 7.58 6.7 11 13 1018.9 2.2 17.6 25.9 38.4 100.5 91.3 312.8
14 19:30 8.8 89 7.75 7.1 9 15 1018.8 2.2 18.0 26.2 39.1 102.3 93.6 320.9
14 19:20 8.8 90 7.84 7.2 7 9 1018.7 2.2 18.2 26.3 39.4 103.3 94.8 325.3
14 19:10 8.9 88 7.71 7.1 9 9 1018.5 2.2 17.9 26.1 38.8 101.7 92.9 318.5
14 19:00 9 88 7.76 7.2 9 11 1018.4 2.2 18.0 26.1 39.0 102.1 93.5 320.5
14 18:50 9 88 7.76 7.2 9 11 1018.2 2.2 18.0 26.1 39.0 102.1 93.4 320.4
14 18:40 9.1 88 7.81 7.2 9 11 1018 2.2 18.1 26.2 39.1 102.5 94.0 322.4
14 18:30 9 90 7.94 7.4 15 19 1017.8 2.2 18.4 26.4 39.7 104.1 95.9 329.0
14 18:20 9 91 8.03 7.6 11 15 1017.8 2.2 18.6 26.5 40.1 105.1 97.1 333.4
14 18:10 9 90 7.94 7.4 11 13 1017.6 2.2 18.4 26.4 39.7 104.1 95.9 329.0
14 18:00 9.2 90 8.04 7.6 11 13 1017.3 2.2 18.6 26.5 40.0 104.9 97.0 332.9
14 17:50 9.2 90 8.04 7.6 11 15 1017.1 2.2 18.6 26.5 40.0 104.9 97.0 332.8
14 17:40 9.4 88 7.96 7.6 15 20 1017 2.2 18.4 26.3 39.6 103.7 95.6 328.1
14 17:30 9.6 88 8.06 7.8 13 17 1017 2.2 18.6 26.4 39.9 104.5 96.7 332.0
14 17:20 9.7 88 8.11 7.9 15 17 1016.9 2.2 18.7 26.4 40.0 105.0 97.3 334.0
14 17:10 9.7 88 8.11 7.9 15 19 1016.8 2.2 18.7 26.4 40.0 104.9 97.3 334.0
14 17:00 9.7 88 8.11 7.8 15 17 1016.8 2.2 18.7 26.4 40.0 104.9 97.3 334.0
14 16:50 9.8 88 8.17 7.9 17 19 1016.7 2.2 18.9 26.5 40.2 105.5 98.0 336.4
14 16:40 9.9 88 8.22 8 17 19 1016.7 2.2 19.0 26.6 40.4 105.9 98.5 338.4
14 16:30 10 87 8.18 7.9 17 19 1016.6 2.2 18.9 26.4 40.1 105.3 97.8 336.0
14 16:20 10 87 8.18 7.9 19 22 1016.4 2.2 18.9 26.4 40.1 105.3 97.8 335.9
14 16:10 10 87 8.18 7.9 15 19 1016.2 2.2 18.9 26.4 40.1 105.3 97.8 335.9
14 16:00 10 87 8.18 7.9 19 20 1016.2 2.2 18.9 26.4 40.1 105.3 97.8 335.9
14 15:50 10.1 88 8.32 8.2 19 24 1016.1 2.2 19.2 26.6 40.7 106.7 99.6 342.2
14 15:40 9.9 88 8.22 8 22 28 1016.1 2.2 19.0 26.5 40.3 105.8 98.5 338.2
14 15:30 9.9 88 8.22 8 19 26 1016.1 2.2 19.0 26.5 40.3 105.8 98.5 338.2
14 15:20 9.9 88 8.22 8.1 15 19 1016 2.2 19.0 26.5 40.3 105.8 98.5 338.2
14 15:10 9.9 90 8.41 8.3 20 26 1016 2.2 19.4 26.8 41.1 107.9 101.1 347.4
14 15:00 9.8 91 8.45 8.4 17 20 1016 2.2 19.5 26.9 41.4 108.5 101.8 349.8
14 14:50 9.7 91 8.39 8.3 20 24 1016 2.2 19.3 26.9 41.2 108.0 101.1 347.3
14 14:40 9.8 91 8.45 8.4 17 19 1016 2.2 19.5 26.9 41.4 108.5 101.8 349.8
14 14:30 9.7 91 8.39 8.3 17 26 1016 2.2 19.3 26.9 41.2 108.0 101.1 347.3
14 14:20 9.7 92 8.48 8.4 22 28 1015.9 2.2 19.5 27.0 41.5 109.0 102.3 351.7
14 14:10 9.7 92 8.48 8.4 17 20 1015.9 2.2 19.5 27.0 41.5 109.0 102.3 351.7
14 14:00 9.6 92 8.43 8.3 17 28 1015.8 2.2 19.4 27.0 41.4 108.6 101.8 349.6
14 13:50 9.6 92 8.43 8.3 19 20 1015.9 2.2 19.4 27.0 41.4 108.6 101.8 349.7
14 13:40 9.6 93 8.52 8.5 15 19 1015.9 2.2 19.6 27.1 41.8 109.6 103.0 354.1
14 13:30 9.4 93 8.41 8.3 20 24 1015.8 2.2 19.4 27.0 41.4 108.6 101.7 349.6
14 13:20 9.3 93 8.36 8.2 24 28 1015.8 2.2 19.3 26.9 41.2 108.2 101.2 347.6
14 13:10 9.3 93 8.36 8.2 22 28 1015.9 2.2 19.3 26.9 41.2 108.2 101.2 347.6
14 13:00 9.3 93 8.36 8.2 17 19 1016 2.2 19.3 26.9 41.2 108.2 101.2 347.6
14 12:50 9.1 93 8.25 8 17 19 1016.1 2.2 19.1 26.8 40.9 107.3 99.9 343.2
14 12:40 9 93 8.2 7.9 22 30 1016.2 2.2 19.0 26.8 40.7 106.8 99.4 341.2
14 12:30 8.9 93 8.15 7.8 20 24 1016.3 2.2 18.9 26.7 40.6 106.4 98.8 339.2
14 12:20 8.8 93 8.1 7.7 19 22 1016.4 2 18.8 26.7 40.4 106.0 98.3 337.3
14 12:10 8.7 93 8.05 7.6 20 30 1016.6 2 18.6 26.6 40.3 105.6 97.7 335.3
14 12:00 8.7 93 8.05 7.6 20 26 1016.7 1.8 18.6 26.6 40.3 105.6 97.7 335.3
14 11:50 8.7 93 8.05 7.6 20 30 1016.8 1.8 18.6 26.6 40.3 105.6 97.7 335.4
14 11:40 8.6 93 7.99 7.5 20 26 1016.9 1.6 18.5 26.6 40.1 105.1 97.0 332.9
14 11:30 8.6 93 7.99 7.5 20 24 1017 1.6 18.5 26.6 40.1 105.1 97.0 332.9
14 11:20 8.5 93 7.94 7.4 20 26 1017.1 1.4 18.4 26.5 39.9 104.7 96.5 330.9
14 11:10 8.5 93 7.94 7.4 20 24 1017.2 1.2 18.4 26.5 39.9 104.7 96.5 331.0
14 11:00 8.5 93 7.94 7.4 20 24 1017.3 1 18.4 26.5 39.9 104.7 96.5 331.0
14 10:50 8.6 93 7.99 7.5 20 26 1017.3 0.8 18.5 26.6 40.1 105.1 97.0 333.0
14 10:40 8.6 93 7.99 7.5 19 20 1017.4 0.8 18.5 26.6 40.1 105.1 97.1 333.0
14 10:30 8.6 93 7.99 7.5 20 26 1017.6 0.8 18.5 26.6 40.1 105.2 97.1 333.1
14 10:20 8.7 93 8.05 7.6 17 19 1017.6 0.8 18.6 26.7 40.3 105.7 97.8 335.6
14 10:10 8.7 93 8.05 7.6 19 24 1017.7 0.8 18.6 26.7 40.3 105.7 97.8 335.6
14 10:00 8.8 93 8.1 7.7 15 17 1017.8 0.8 18.8 26.7 40.5 106.2 98.4 337.6
14 09:50 8.7 93 8.05 7.6 20 28 1017.7 0.6 18.6 26.7 40.3 105.7 97.8 335.6
14 09:40 8.7 93 8.05 7.6 17 22 1017.8 0.6 18.6 26.7 40.3 105.7 97.8 335.6
14 09:30 8.7 93 8.05 7.7 11 13 1017.8 0.6 18.6 26.7 40.3 105.7 97.8 335.6
14 09:20 8.6 93 7.99 7.5 13 17 1017.8 0.4 18.5 26.6 40.1 105.2 97.1 333.1

Last Refresh: 15-Jun-2024 01:57:57

Bureau of Meteorology